Time;durP1;ratioP1;P1;durP2;ratioP2;P2;SDS_P1;SDS_P2;PMS_P1;PMS_P2;Temp;Humidity;BMP_temperature;BMP_pressure;BME280_temperature;BME280_humidity;BME280_pressure;Samples;Min_cycle;Max_cycle;Signal;HPM_P1;HPM_P2
2023/09/16 00:02:12;;;;;;;18.33;12.65;;;;;;;18.81;82.14;94304.59;5083665;28;20031;-77
2023/09/16 00:04:37;;;;;;;17.63;12.15;;;;;;;18.79;82.03;94307.63;5083686;28;20016;-78
2023/09/16 00:07:03;;;;;;;18.08;12.10;;;;;;;18.81;82.86;94294.56;5083662;28;20303;-78
2023/09/16 00:09:29;;;;;;;18.17;12.98;;;;;;;18.85;82.24;94286.53;5083560;28;20021;-78
2023/09/16 00:11:55;;;;;;;21.60;12.65;;;;;;;18.84;83.40;94284.97;5065587;28;20052;-78
2023/09/16 00:14:22;;;;;;;22.33;13.57;;;;;;;18.82;83.31;94287.25;5083529;28;20047;-78
2023/09/16 00:16:49;;;;;;;25.67;13.57;;;;;;;18.83;84.04;94281.50;5083267;28;20024;-77
2023/09/16 00:19:14;;;;;;;28.00;14.43;;;;;;;18.84;84.27;94283.03;5083403;28;20020;-78
2023/09/16 00:21:41;;;;;;;20.30;13.82;;;;;;;18.86;84.08;94288.09;5083057;28;20024;-77
2023/09/16 00:24:09;;;;;;;20.83;12.77;;;;;;;18.81;84.44;94291.88;5083301;28;20020;-78
2023/09/16 00:26:35;;;;;;;23.63;13.75;;;;;;;18.77;84.87;94290.97;5083274;28;20044;-78
2023/09/16 00:29:00;;;;;;;27.95;13.50;;;;;;;18.71;84.74;94288.91;5083536;28;20024;-77
2023/09/16 00:31:27;;;;;;;20.95;12.75;;;;;;;18.71;84.63;94294.31;5083305;28;20047;-77
2023/09/16 00:33:52;;;;;;;16.88;12.73;;;;;;;18.73;84.67;94297.44;5083144;28;20031;-78
2023/09/16 00:36:18;;;;;;;17.38;12.00;;;;;;;18.73;84.00;94292.06;5083106;28;20314;-79
2023/09/16 00:38:43;;;;;;;20.13;12.93;;;;;;;18.69;84.24;94308.16;5083180;28;20366;-79
2023/09/16 00:41:11;;;;;;;16.55;12.20;;;;;;;18.68;84.94;94303.13;5083091;28;20055;-79
2023/09/16 00:43:37;;;;;;;17.83;12.90;;;;;;;18.64;84.76;94301.13;5082999;28;20024;-79
2023/09/16 00:46:02;;;;;;;19.05;12.98;;;;;;;18.60;85.25;94308.38;5083223;28;20196;-78
2023/09/16 00:48:28;;;;;;;26.45;12.88;;;;;;;18.57;83.94;94309.06;5082945;28;20020;-79
2023/09/16 00:50:54;;;;;;;19.90;13.52;;;;;;;18.52;83.64;94309.34;5083050;28;20023;-78
2023/09/16 00:53:20;;;;;;;17.42;12.15;;;;;;;18.53;83.58;94313.59;5082971;28;20036;-79
2023/09/16 00:55:47;;;;;;;15.82;11.98;;;;;;;18.50;83.77;94317.03;5081708;28;20020;-79
2023/09/16 00:58:13;;;;;;;16.90;12.55;;;;;;;18.52;84.19;94303.16;5082854;28;20012;-79
2023/09/16 01:00:39;;;;;;;18.33;12.88;;;;;;;18.49;83.93;94301.94;5082971;28;20051;-79
2023/09/16 01:03:06;;;;;;;19.52;12.00;;;;;;;18.51;83.90;94299.69;5082669;28;20020;-78
2023/09/16 01:05:33;;;;;;;16.85;12.57;;;;;;;18.54;84.72;94282.78;5083056;28;20016;-78
2023/09/16 01:07:58;;;;;;;19.77;12.60;;;;;;;18.58;85.18;94290.94;5082976;28;20043;-78
2023/09/16 01:10:23;;;;;;;16.98;11.88;;;;;;;18.62;85.53;94289.91;5082714;28;20319;-78
2023/09/16 01:12:54;;;;;;;18.85;13.00;;;;;;;18.61;85.53;94282.16;5064652;28;20044;-78
2023/09/16 01:15:22;;;;;;;22.10;12.57;;;;;;;18.57;85.73;94276.66;5082845;28;20092;-78
2023/09/16 01:18:11;;;;;;;18.13;13.73;;;;;;;18.58;85.74;94272.03;5082868;28;20021;-79
2023/09/16 01:20:39;;;;;;;22.10;13.52;;;;;;;18.60;85.64;94275.19;5082608;28;20024;-78
2023/09/16 01:23:05;;;;;;;17.70;12.88;;;;;;;18.59;85.31;94274.41;5082832;28;20229;-78
2023/09/16 01:25:31;;;;;;;17.20;13.18;;;;;;;18.65;85.52;94277.63;5082944;28;20030;-77
2023/09/16 01:27:56;;;;;;;22.20;12.23;;;;;;;18.61;85.78;94271.34;5082720;28;20335;-77
2023/09/16 01:30:25;;;;;;;22.05;12.55;;;;;;;18.60;nan;94277.88;5082644;28;20318;-77
2023/09/16 01:33:18;;;;;;;16.90;12.48;;;;;;;18.60;85.92;94270.59;5082673;28;20020;-77
2023/09/16 01:35:47;;;;;;;20.83;14.02;;;;;;;18.59;86.34;94255.50;5086647;28;20253;-77
2023/09/16 01:38:15;;;;;;;17.95;11.82;;;;;;;18.61;86.61;94261.34;5086448;28;20027;-77
2023/09/16 01:40:43;;;;;;;20.05;13.95;;;;;;;18.61;86.82;94272.13;5086381;28;20020;-77
2023/09/16 01:43:10;;;;;;;16.80;12.98;;;;;;;18.58;85.32;94272.84;5086345;28;20020;-78
2023/09/16 01:45:44;;;;;;;18.65;12.27;;;;;;;18.48;85.18;94275.31;5086474;28;20024;-77
2023/09/16 01:48:09;;;;;;;19.80;13.02;;;;;;;18.43;85.43;94284.47;5086315;28;20081;-77
2023/09/16 01:50:35;;;;;;;23.17;13.30;;;;;;;18.42;85.96;94288.31;5086261;28;20322;-77
2023/09/16 01:53:01;;;;;;;20.52;14.65;;;;;;;18.42;86.31;94297.19;5086280;28;20055;-78
2023/09/16 01:55:27;;;;;;;18.30;13.38;;;;;;;18.39;85.42;94295.19;5086096;28;20087;-78
2023/09/16 01:57:53;;;;;;;17.83;12.75;;;;;;;18.32;85.07;94296.94;5086107;28;20028;-77
2023/09/16 02:00:18;;;;;;;21.20;12.35;;;;;;;18.28;84.92;94298.75;5086041;28;20330;-77
2023/09/16 02:02:44;;;;;;;23.95;13.07;;;;;;;18.20;85.13;94297.84;5085913;28;20028;-77
2023/09/16 02:05:10;;;;;;;18.20;13.07;;;;;;;18.12;85.14;94310.38;5085879;28;20066;-77
2023/09/16 02:07:36;;;;;;;18.60;12.57;;;;;;;18.05;85.92;94302.09;5085818;28;20032;-77
2023/09/16 02:10:03;;;;;;;16.75;12.85;;;;;;;17.99;85.35;94306.19;5085951;28;20031;-77
2023/09/16 02:12:28;;;;;;;20.95;14.02;;;;;;;17.93;86.09;94308.38;5085324;28;20048;-78
2023/09/16 02:14:54;;;;;;;19.58;14.20;;;;;;;17.90;87.18;94303.69;5085378;28;20024;-77
2023/09/16 02:17:19;;;;;;;21.45;12.57;;;;;;;17.94;86.54;94309.94;5085160;28;20016;-77
2023/09/16 02:19:44;;;;;;;19.45;11.77;;;;;;;17.91;85.91;94304.44;5085492;28;20013;-77
2023/09/16 02:22:10;;;;;;;17.70;12.38;;;;;;;17.91;85.97;94296.38;5085523;28;20017;-78
2023/09/16 02:24:35;;;;;;;20.85;13.60;;;;;;;17.91;86.15;94297.16;5067855;28;20315;-77
2023/09/16 02:27:01;;;;;;;18.10;12.73;;;;;;;17.93;86.36;94297.59;5085666;28;20019;-77
2023/09/16 02:29:26;;;;;;;19.95;12.27;;;;;;;17.96;86.80;94302.28;5085591;28;20020;-78
2023/09/16 02:31:51;;;;;;;15.77;12.05;;;;;;;17.99;86.01;94311.59;5085577;28;20021;-78
2023/09/16 02:34:17;;;;;;;17.73;12.05;;;;;;;17.98;85.72;94307.34;5085333;28;20087;-77
2023/09/16 02:36:43;;;;;;;17.33;12.93;;;;;;;18.00;85.95;94307.78;5085268;28;20170;-78
2023/09/16 02:39:09;;;;;;;19.27;12.68;;;;;;;17.95;86.44;94308.81;5085433;28;20246;-78
2023/09/16 02:41:34;;;;;;;18.05;12.52;;;;;;;17.93;86.38;94312.97;5085462;28;20092;-77
2023/09/16 02:43:59;;;;;;;18.20;11.75;;;;;;;17.91;86.22;94310.66;5085413;28;20327;-77
2023/09/16 02:46:25;;;;;;;19.42;12.85;;;;;;;17.91;86.11;94312.53;5085002;28;20333;-77
2023/09/16 02:48:50;;;;;;;18.23;13.23;;;;;;;17.92;85.73;94316.81;5067435;28;20023;-77
2023/09/16 02:51:15;;;;;;;18.42;13.02;;;;;;;17.92;86.46;94331.06;5085131;28;20024;-77
2023/09/16 02:53:41;;;;;;;18.33;12.25;;;;;;;17.90;86.49;94325.25;5085181;28;20112;-78
2023/09/16 02:56:09;;;;;;;27.75;13.90;;;;;;;17.91;86.62;94331.41;5084853;28;20039;-77
2023/09/16 02:58:35;;;;;;;19.67;13.73;;;;;;;17.88;86.88;94332.13;5084996;28;20058;-77
2023/09/16 03:01:08;;;;;;;21.00;13.77;;;;;;;17.87;87.23;94336.75;5084937;28;20028;-77
2023/09/16 03:03:34;;;;;;;19.48;13.60;;;;;;;17.88;86.98;94330.22;5085004;28;20028;-77
2023/09/16 03:05:59;;;;;;;23.77;14.07;;;;;;;17.84;87.50;94332.81;5083797;28;20323;-77
2023/09/16 03:08:24;;;;;;;20.33;13.70;;;;;;;17.83;87.54;94341.25;5084859;28;20241;-77
2023/09/16 03:10:50;;;;;;;15.93;12.65;;;;;;;17.81;87.21;94343.50;5084722;28;20132;-77
2023/09/16 03:13:15;;;;;;;18.65;13.45;;;;;;;17.82;87.25;94339.66;5083341;28;20227;-77
2023/09/16 03:15:46;;;;;;;24.10;14.18;;;;;;;17.80;87.81;94340.00;5084766;28;20024;-77
2023/09/16 03:18:11;;;;;;;20.13;14.68;;;;;;;17.79;88.63;94335.75;5066811;28;20100;-76
2023/09/16 03:20:36;;;;;;;22.10;12.82;;;;;;;17.79;88.21;94343.06;5066668;28;20020;-77
2023/09/16 03:23:02;;;;;;;21.75;14.48;;;;;;;17.77;87.93;94327.22;5084489;28;20318;-77
2023/09/16 03:25:28;;;;;;;18.38;13.23;;;;;;;17.78;87.56;94323.38;5084453;28;20043;-76
2023/09/16 03:27:53;;;;;;;24.10;13.43;;;;;;;17.81;87.76;94328.09;5084527;28;20035;-77
2023/09/16 03:30:18;;;;;;;23.00;13.90;;;;;;;17.83;87.43;94327.78;5084425;28;20089;-77
2023/09/16 03:32:44;;;;;;;21.95;13.90;;;;;;;17.82;87.16;94335.03;5084107;28;20307;-77
2023/09/16 03:35:10;;;;;;;22.05;13.73;;;;;;;17.85;86.86;94333.63;5066395;28;20306;-77
2023/09/16 03:37:35;;;;;;;23.13;14.27;;;;;;;17.82;86.53;94340.44;5084344;28;20028;-78
2023/09/16 03:40:00;;;;;;;20.98;14.88;;;;;;;17.81;86.47;94344.28;5084370;28;20096;-78
2023/09/16 03:42:26;;;;;;;22.52;14.68;;;;;;;17.80;86.67;94339.22;5084020;28;20025;-77
2023/09/16 03:44:51;;;;;;;19.95;14.27;;;;;;;17.81;86.91;94349.66;5084146;28;20025;-77
2023/09/16 03:47:16;;;;;;;21.27;14.77;;;;;;;17.78;86.99;94355.72;5083992;28;20065;-78
2023/09/16 03:49:42;;;;;;;26.25;15.60;;;;;;;17.79;87.22;94338.44;5083976;28;20219;-78
2023/09/16 03:52:07;;;;;;;22.40;13.85;;;;;;;17.79;87.07;94351.94;5083815;28;20023;-77
2023/09/16 03:54:33;;;;;;;24.70;14.57;;;;;;;17.83;87.62;94346.66;5084038;28;20020;-78
2023/09/16 03:57:03;;;;;;;21.30;14.00;;;;;;;17.82;87.54;94351.22;5083258;28;20024;-79
2023/09/16 03:59:28;;;;;;;18.90;14.75;;;;;;;17.80;87.37;94358.88;5065746;28;20029;-77
2023/09/16 04:01:54;;;;;;;22.80;13.93;;;;;;;17.83;87.26;94357.44;5083577;28;20365;-77
2023/09/16 04:04:19;;;;;;;28.00;15.27;;;;;;;17.83;87.15;94374.41;5065976;28;20025;-77
2023/09/16 04:06:44;;;;;;;19.58;13.73;;;;;;;17.85;86.96;94371.38;5083682;28;20047;-77
2023/09/16 04:09:10;;;;;;;23.75;15.10;;;;;;;17.88;86.83;94375.28;5083601;28;20020;-77
2023/09/16 04:11:35;;;;;;;24.15;15.38;;;;;;;17.95;87.45;94389.72;5083611;28;20040;-77
2023/09/16 04:14:00;;;;;;;22.17;14.32;;;;;;;17.96;87.26;94383.19;5083733;28;20020;-78
2023/09/16 04:16:26;;;;;;;25.25;15.13;;;;;;;18.03;87.79;94387.97;5083438;28;20277;-77
2023/09/16 04:18:53;;;;;;;23.00;14.43;;;;;;;18.07;87.75;94386.16;5082903;28;20027;-78
2023/09/16 04:21:19;;;;;;;23.00;16.17;;;;;;;18.09;87.57;94396.59;5064829;28;20035;-78
2023/09/16 04:23:44;;;;;;;22.65;15.15;;;;;;;18.06;88.19;94383.81;5082902;28;20021;-78
2023/09/16 04:26:13;;;;;;;20.25;15.05;;;;;;;18.06;89.04;94383.81;5083366;28;20031;-78
2023/09/16 04:28:39;;;;;;;24.75;15.85;;;;;;;18.06;89.30;94381.91;5083132;28;20043;-77
2023/09/16 04:31:04;;;;;;;27.75;15.98;;;;;;;18.07;89.28;94383.44;5083428;28;20020;-76
2023/09/16 04:33:29;;;;;;;26.85;16.38;;;;;;;18.15;89.42;94390.59;5065510;28;20028;-77
2023/09/16 04:35:56;;;;;;;21.20;15.02;;;;;;;18.26;89.11;94385.47;5083339;28;20058;-77
2023/09/16 04:38:22;;;;;;;20.67;15.23;;;;;;;18.21;89.40;94388.41;5082956;28;20192;-77
2023/09/16 04:40:48;;;;;;;28.02;15.73;;;;;;;18.19;89.94;94382.59;5082006;28;20025;-77
2023/09/16 04:43:13;;;;;;;25.98;16.35;;;;;;;18.14;90.02;94388.25;5083060;28;20380;-77
2023/09/16 04:45:48;;;;;;;26.77;17.65;;;;;;;18.15;90.13;94390.59;5064397;28;20025;-77
2023/09/16 04:48:15;;;;;;;25.63;17.55;;;;;;;18.16;90.23;94388.69;5083184;28;20295;-77
2023/09/16 04:50:42;;;;;;;25.88;17.23;;;;;;;18.16;90.71;94386.00;5082978;28;20322;-77
2023/09/16 04:53:09;;;;;;;27.52;17.60;;;;;;;18.16;90.56;94392.16;5082980;28;20021;-77
2023/09/16 04:55:35;;;;;;;30.90;17.35;;;;;;;18.17;90.65;94393.72;5082916;28;20031;-77
2023/09/16 04:58:00;;;;;;;31.58;18.35;;;;;;;18.18;91.02;94395.28;5083026;28;20021;-77
2023/09/16 05:00:32;;;;;;;27.65;18.13;;;;;;;18.15;91.10;94397.91;5082870;28;20028;-77
2023/09/16 05:02:58;;;;;;;30.02;17.95;;;;;;;18.16;91.24;94402.19;5082780;28;20113;-77
2023/09/16 05:05:23;;;;;;;27.17;16.83;;;;;;;18.17;91.79;94388.31;5082975;28;20016;-77
2023/09/16 05:07:49;;;;;;;29.48;17.92;;;;;;;18.18;92.33;94399.91;5082957;28;20286;-77
2023/09/16 05:10:14;;;;;;;29.65;17.30;;;;;;;18.23;92.19;94400.41;5086242;28;20020;-77
2023/09/16 05:12:40;;;;;;;27.65;17.42;;;;;;;18.21;92.40;94399.97;5086906;28;20039;-79
2023/09/16 05:15:06;;;;;;;39.20;20.58;;;;;;;18.23;92.52;94388.84;5086967;28;20023;-79
2023/09/16 05:17:32;;;;;;;36.53;20.77;;;;;;;18.27;92.52;94402.44;5069398;28;20188;-78
2023/09/16 05:19:57;;;;;;;35.25;20.13;;;;;;;18.28;92.57;94409.38;5086687;28;20016;-78
2023/09/16 05:22:22;;;;;;;32.20;17.65;;;;;;;18.24;91.89;94410.09;5086697;28;20020;-78
2023/09/16 05:24:48;;;;;;;29.00;17.15;;;;;;;18.17;92.34;94409.91;5086790;28;20264;-78
2023/09/16 05:27:13;;;;;;;31.52;18.30;;;;;;;18.09;92.68;94408.16;5086657;28;20024;-78
2023/09/16 05:29:38;;;;;;;26.77;18.30;;;;;;;18.02;93.48;94405.28;5085515;28;20020;-78
2023/09/16 05:32:04;;;;;;;33.40;19.80;;;;;;;18.03;94.28;94402.25;5086902;28;20386;-77
2023/09/16 05:34:30;;;;;;;29.55;18.75;;;;;;;18.00;94.49;94399.47;5086521;28;20062;-77
2023/09/16 05:36:55;;;;;;;35.25;20.45;;;;;;;18.04;94.90;94394.94;5086475;28;20020;-78
2023/09/16 05:39:20;;;;;;;30.05;19.13;;;;;;;18.12;94.59;94406.69;5086282;28;20364;-78
2023/09/16 05:41:47;;;;;;;26.17;18.13;;;;;;;18.13;94.49;94422.53;5086335;28;20100;-78
2023/09/16 05:44:13;;;;;;;29.20;17.80;;;;;;;18.16;94.18;94423.75;5086353;28;20222;-77
2023/09/16 05:46:38;;;;;;;28.40;18.35;;;;;;;18.07;94.16;94442.78;5086248;28;20031;-77
2023/09/16 05:49:07;;;;;;;28.77;18.58;;;;;;;17.94;94.39;94438.59;5086443;28;21313;-77
2023/09/16 05:51:33;;;;;;;30.98;20.27;;;;;;;17.86;95.31;94431.47;5086559;28;20054;-78
2023/09/16 05:53:59;;;;;;;25.83;18.73;;;;;;;17.84;95.75;94418.31;5086234;28;20382;-78
2023/09/16 05:56:24;;;;;;;28.27;19.65;;;;;;;17.86;96.44;94417.97;5086096;28;20032;-78
2023/09/16 05:58:49;;;;;;;28.13;19.70;;;;;;;17.93;96.89;94420.84;5086156;28;20337;-77
2023/09/16 06:01:15;;;;;;;29.92;18.27;;;;;;;17.98;96.93;94428.69;5086030;28;20029;-77
2023/09/16 06:03:40;;;;;;;27.63;18.13;;;;;;;17.98;96.63;94440.25;5085860;28;20099;-77
2023/09/16 06:06:06;;;;;;;28.63;17.63;;;;;;;17.95;95.98;94434.75;5085882;28;20016;-77
2023/09/16 06:08:31;;;;;;;31.10;17.63;;;;;;;17.87;96.05;94433.00;5086085;28;20138;-77
2023/09/16 06:10:57;;;;;;;29.63;17.50;;;;;;;17.87;95.89;94433.00;5085815;28;20027;-77
2023/09/16 06:13:22;;;;;;;33.80;19.65;;;;;;;17.91;95.96;94431.19;5067562;28;20063;-78
2023/09/16 06:15:48;;;;;;;28.17;17.55;;;;;;;17.97;96.39;94433.31;5085667;28;20021;-78
2023/09/16 06:18:13;;;;;;;26.88;17.98;;;;;;;18.00;96.61;94429.91;5085689;28;20402;-77
2023/09/16 06:20:40;;;;;;;29.15;18.02;;;;;;;18.02;97.02;94434.97;5083981;28;20047;-78
2023/09/16 06:23:05;;;;;;;27.75;17.65;;;;;;;17.99;96.96;94419.47;5085416;28;20027;-78
2023/09/16 06:25:31;;;;;;;26.08;18.15;;;;;;;17.97;97.37;94408.25;5085685;28;20016;-77
2023/09/16 06:27:59;;;;;;;28.20;19.25;;;;;;;17.97;97.18;94398.25;5085380;28;20310;-78
2023/09/16 06:30:24;;;;;;;29.95;17.08;;;;;;;18.06;97.07;94408.88;5085340;28;20027;-78
2023/09/16 06:32:53;;;;;;;29.05;18.17;;;;;;;18.14;96.52;94413.31;5085494;28;20025;-78
2023/09/16 06:35:20;;;;;;;29.60;18.40;;;;;;;18.18;96.31;94422.28;5085351;28;20307;-78
2023/09/16 06:37:45;;;;;;;27.65;16.65;;;;;;;18.28;96.23;94420.97;5085260;28;20065;-78
2023/09/16 06:40:11;;;;;;;24.05;16.00;;;;;;;18.32;95.81;94432.66;5085194;28;20032;-78
2023/09/16 06:42:36;;;;;;;26.45;13.00;;;;;;;18.39;95.36;94442.81;5085182;28;20050;-78
2023/09/16 06:45:02;;;;;;;20.73;9.40;;;;;;;18.45;92.85;94436.03;5085314;28;20024;-79
2023/09/16 06:47:28;;;;;;;8.63;4.70;;;;;;;18.48;91.92;94443.44;5067203;28;20016;-80
2023/09/16 06:49:55;;;;;;;14.15;6.07;;;;;;;18.39;88.34;94448.22;5085071;28;20017;-81
2023/09/16 06:52:22;;;;;;;17.15;9.18;;;;;;;18.34;91.03;94446.56;5085180;28;20263;-80
2023/09/16 06:54:48;;;;;;;23.90;12.55;;;;;;;18.31;93.03;94446.47;5066973;28;20039;-80
2023/09/16 06:57:14;;;;;;;26.73;17.13;;;;;;;18.25;94.92;94449.41;5084650;28;20045;-80
2023/09/16 06:59:39;;;;;;;26.73;17.08;;;;;;;18.12;95.66;94456.03;5084791;28;20031;-81
2023/09/16 07:02:05;;;;;;;19.58;14.13;;;;;;;17.94;95.34;94460.19;5084898;28;20024;-81
2023/09/16 07:04:30;;;;;;;20.00;13.25;;;;;;;17.88;95.46;94453.47;5084852;28;20372;-80
2023/09/16 07:06:56;;;;;;;19.30;13.25;;;;;;;17.78;96.07;94449.31;5066878;28;20027;-81
2023/09/16 07:09:22;;;;;;;24.52;13.45;;;;;;;17.73;96.45;94461.16;5084843;28;20020;-81
2023/09/16 07:11:47;;;;;;;31.42;17.75;;;;;;;17.83;98.43;94449.13;5066694;28;20037;-81
2023/09/16 07:14:12;;;;;;;29.83;18.67;;;;;;;17.95;99.81;94467.13;5084723;28;20325;-81
2023/09/16 07:16:40;;;;;;;29.30;20.05;;;;;;;17.97;99.39;94462.16;5084439;28;20101;-80
2023/09/16 07:19:05;;;;;;;35.50;19.88;;;;;;;17.88;99.04;94467.72;5084547;28;20013;-81
2023/09/16 07:21:31;;;;;;;32.53;20.52;;;;;;;17.95;98.04;94461.72;5083276;28;20031;-81
2023/09/16 07:24:00;;;;;;;30.88;20.27;;;;;;;17.95;98.30;94459.03;5083450;28;20012;-82
2023/09/16 07:26:27;;;;;;;36.92;20.05;;;;;;;17.97;99.46;94454.88;5084130;28;20021;-81
2023/09/16 07:28:53;;;;;;;34.15;21.13;;;;;;;17.98;100.00;94461.06;5084468;28;20020;-80
2023/09/16 07:31:18;;;;;;;35.42;21.13;;;;;;;18.08;99.10;94455.16;5083479;28;20047;-79
2023/09/16 07:33:45;;;;;;;35.30;20.85;;;;;;;18.22;98.40;94450.13;5083109;28;20099;-79
2023/09/16 07:36:10;;;;;;;35.75;21.10;;;;;;;18.31;98.58;94435.69;5084209;28;20021;-79
2023/09/16 07:38:36;;;;;;;28.83;19.80;;;;;;;18.40;99.02;94431.69;5084291;28;20027;-80
2023/09/16 07:41:01;;;;;;;31.88;20.02;;;;;;;18.57;98.59;94435.16;5084162;28;20028;-80
2023/09/16 07:43:26;;;;;;;25.67;18.23;;;;;;;18.65;98.33;94451.16;5083869;28;20078;-80
2023/09/16 07:45:52;;;;;;;26.70;18.25;;;;;;;18.67;96.98;94460.84;5066255;28;20047;-79
2023/09/16 07:48:17;;;;;;;24.58;17.73;;;;;;;18.65;96.28;94472.00;5084016;28;20094;-79
2023/09/16 07:50:45;;;;;;;27.02;19.85;;;;;;;18.73;96.87;94468.34;5083965;28;20017;-79
2023/09/16 07:53:11;;;;;;;25.88;18.33;;;;;;;18.88;96.25;94472.16;5083958;28;20074;-80
2023/09/16 07:55:38;;;;;;;24.95;18.35;;;;;;;18.91;95.49;94473.38;5083802;28;20035;-80
2023/09/16 07:58:04;;;;;;;26.58;19.20;;;;;;;18.92;95.50;94483.06;5083970;28;20029;-79
2023/09/16 08:00:29;;;;;;;28.35;19.25;;;;;;;18.83;94.83;94478.63;5065889;28;20028;-80
2023/09/16 08:02:55;;;;;;;28.52;19.00;;;;;;;18.73;94.74;94475.66;5083676;28;20056;-80
2023/09/16 08:05:20;;;;;;;28.90;20.83;;;;;;;18.83;95.17;94475.16;5065837;28;20103;-80
2023/09/16 08:07:46;;;;;;;27.73;18.63;;;;;;;18.82;94.95;94481.69;5082496;28;20020;-79
2023/09/16 08:10:11;;;;;;;28.98;20.90;;;;;;;18.76;94.71;94475.72;5083303;28;20091;-80
2023/09/16 08:12:36;;;;;;;32.55;20.00;;;;;;;18.74;94.29;94477.22;5065620;28;20071;-79
2023/09/16 08:15:03;;;;;;;28.70;20.30;;;;;;;18.79;94.20;94472.34;5083766;28;20087;-79
2023/09/16 08:17:28;;;;;;;30.98;22.05;;;;;;;18.86;94.91;94468.25;5065585;28;20016;-79
2023/09/16 08:19:53;;;;;;;33.50;22.45;;;;;;;18.67;94.73;94469.72;5083189;28;20055;-80
2023/09/16 08:22:19;;;;;;;36.92;23.75;;;;;;;18.69;94.71;94472.09;5083455;28;20016;-79
2023/09/16 08:24:44;;;;;;;31.58;24.30;;;;;;;18.75;96.66;94468.75;5083355;28;20016;-79
2023/09/16 08:27:10;;;;;;;29.95;22.90;;;;;;;18.94;95.82;94462.66;5082783;28;20044;-78
2023/09/16 08:29:35;;;;;;;31.52;24.67;;;;;;;19.10;94.92;94461.88;5083255;28;20026;-76
2023/09/16 08:32:00;;;;;;;28.67;23.55;;;;;;;19.26;94.77;94472.63;5083092;28;20012;-78
2023/09/16 08:34:26;;;;;;;28.08;21.33;;;;;;;19.43;92.79;94467.59;5065261;28;20032;-75
2023/09/16 08:36:51;;;;;;;27.65;21.45;;;;;;;19.48;91.64;94468.44;5081626;28;20219;-76
2023/09/16 08:39:16;;;;;;;37.17;22.73;;;;;;;19.53;92.32;94470.88;5083022;28;20021;-76
2023/09/16 08:41:52;;;;;;;27.88;21.88;;;;;;;19.63;92.19;94473.03;5082941;28;20020;-76
2023/09/16 08:44:22;;;;;;;30.70;20.63;;;;;;;19.57;90.31;94477.16;5082456;28;20269;-76
2023/09/16 08:46:55;;;;;;;34.90;21.05;;;;;;;19.76;89.71;94481.78;5082632;28;20021;-78
2023/09/16 08:49:22;;;;;;;29.20;20.73;;;;;;;19.91;90.23;94504.53;5082647;28;20366;-78
2023/09/16 08:51:50;;;;;;;28.40;19.95;;;;;;;19.99;87.88;94496.19;5082558;28;20036;-80
2023/09/16 08:54:21;;;;;;;30.40;21.23;;;;;;;20.10;87.25;94507.19;5082854;28;20252;-73
2023/09/16 08:56:48;;;;;;;32.10;20.83;;;;;;;20.19;87.53;94501.56;5082713;28;20218;-74
2023/09/16 08:59:13;;;;;;;26.13;18.40;;;;;;;20.40;85.75;94517.44;5082801;28;20024;-79
2023/09/16 09:02:23;;;;;;;29.23;19.13;;;;;;;20.42;84.95;94515.13;5082768;28;20036;-79
2023/09/16 09:04:49;;;;;;;25.15;19.50;;;;;;;20.32;85.24;94502.19;5076014;28;20028;-81
2023/09/16 09:07:15;;;;;;;27.50;19.23;;;;;;;20.34;86.66;94502.63;5081269;28;20027;-81
2023/09/16 09:09:41;;;;;;;26.40;18.90;;;;;;;20.45;86.63;94506.28;5064477;28;20098;-81
2023/09/16 09:12:08;;;;;;;25.65;19.42;;;;;;;20.55;84.22;94502.97;5082016;28;20044;-82
2023/09/16 09:14:34;;;;;;;25.15;18.80;;;;;;;20.62;84.38;94495.03;5082869;28;20160;-82
2023/09/16 09:17:00;;;;;;;27.70;19.23;;;;;;;20.65;83.16;94501.63;5064758;28;20032;-81
2023/09/16 09:19:26;;;;;;;29.60;18.15;;;;;;;20.69;82.68;94509.81;5082874;28;20079;-82
2023/09/16 09:21:56;;;;;;;22.48;17.10;;;;;;;20.72;82.85;94509.09;5082661;28;20030;-82
2023/09/16 09:24:22;;;;;;;25.48;16.95;;;;;;;20.72;83.13;94496.34;5080960;28;20044;-81
2023/09/16 09:26:47;;;;;;;24.05;16.48;;;;;;;20.75;82.20;94505.66;5080853;28;20380;-81
2023/09/16 09:29:13;;;;;;;24.25;15.68;;;;;;;20.84;80.22;94503.47;5062816;28;20354;-81
2023/09/16 09:31:39;;;;;;;24.17;16.23;;;;;;;20.98;80.85;94500.22;5080762;28;20028;-81
2023/09/16 09:34:15;;;;;;;21.48;15.13;;;;;;;21.14;80.91;94497.38;5080987;28;20025;-81
2023/09/16 09:36:40;;;;;;;23.48;15.07;;;;;;;21.24;78.85;94502.16;5080737;28;20024;-81
2023/09/16 09:39:08;;;;;;;22.73;14.95;;;;;;;21.40;78.04;94502.00;5082107;28;20024;-81
2023/09/16 09:41:46;;;;;;;24.63;14.90;;;;;;;21.53;77.21;94499.88;5082557;28;20039;-81
2023/09/16 09:44:13;;;;;;;22.20;13.57;;;;;;;21.62;76.55;94493.03;5081393;28;20024;-80
2023/09/16 09:46:40;;;;;;;24.15;13.35;;;;;;;21.75;75.96;94493.56;5082568;28;20040;-80
2023/09/16 09:49:05;;;;;;;18.48;11.73;;;;;;;21.95;76.06;94488.00;5082406;28;20364;-80
2023/09/16 09:51:32;;;;;;;12.98;10.77;;;;;;;22.15;72.65;94481.25;5082403;28;20016;-80
2023/09/16 09:53:57;;;;;;;14.10;10.57;;;;;;;22.46;70.73;94489.34;5081089;28;20025;-80
2023/09/16 09:56:23;;;;;;;12.88;10.55;;;;;;;22.74;71.00;94494.25;5085710;28;20040;-80
2023/09/16 09:58:48;;;;;;;14.60;10.43;;;;;;;22.92;70.56;94489.75;5086120;28;20031;-80
2023/09/16 10:01:15;;;;;;;16.88;11.10;;;;;;;23.23;69.85;94484.94;5086017;28;20035;-80
2023/09/16 10:03:47;;;;;;;15.57;10.05;;;;;;;23.36;67.35;94497.06;5086008;28;20024;-80
2023/09/16 10:06:19;;;;;;;20.63;10.30;;;;;;;23.58;66.02;94492.53;5084759;28;20028;-80
2023/09/16 10:08:45;;;;;;;18.33;9.55;;;;;;;23.44;64.58;94487.78;5085813;28;20023;-80
2023/09/16 10:11:11;;;;;;;14.25;9.75;;;;;;;23.45;64.42;94488.59;5085805;28;20024;-79
2023/09/16 10:13:36;;;;;;;15.75;9.98;;;;;;;23.52;64.76;94488.59;5085637;28;20027;-79
2023/09/16 10:16:02;;;;;;;15.05;9.13;;;;;;;23.52;64.58;94485.88;5068120;28;20040;-79
2023/09/16 10:18:28;;;;;;;15.23;8.40;;;;;;;23.33;63.29;94475.31;5085404;28;20020;-80
2023/09/16 10:20:54;;;;;;;17.13;9.13;;;;;;;23.53;64.46;94473.06;5085567;28;20024;-79
2023/09/16 10:23:20;;;;;;;16.40;9.15;;;;;;;23.70;65.29;94472.38;5085358;28;20024;-79
2023/09/16 10:25:46;;;;;;;19.10;8.80;;;;;;;23.96;65.18;94476.03;5085434;28;20020;-80
2023/09/16 10:28:12;;;;;;;14.55;8.95;;;;;;;24.23;64.81;94469.09;5067732;28;20057;-80
2023/09/16 10:30:38;;;;;;;16.25;8.65;;;;;;;24.36;62.48;94469.53;5067706;28;20333;-80
2023/09/16 10:33:10;;;;;;;11.75;7.20;;;;;;;24.45;58.66;94471.88;5085440;28;20036;-80
2023/09/16 10:35:37;;;;;;;;;;;;;;;24.39;60.61;94479.63;5085870;28;20017;-80
2023/09/16 10:38:04;;;;;;;14.55;8.18;;;;;;;24.46;60.27;94472.63;5085478;28;20282;-80
2023/09/16 10:40:31;;;;;;;10.68;7.28;;;;;;;24.54;57.19;94471.50;5085347;28;20016;-80
2023/09/16 10:42:58;;;;;;;11.35;7.10;;;;;;;24.65;57.75;94463.34;5085295;28;20249;-80
2023/09/16 10:45:25;;;;;;;13.88;8.23;;;;;;;24.69;58.83;94461.38;5067187;28;20016;-80
2023/09/16 10:47:52;;;;;;;12.65;7.60;;;;;;;24.68;60.04;94466.06;5085308;28;20058;-80
2023/09/16 10:50:18;;;;;;;14.63;7.28;;;;;;;24.53;59.86;94451.66;5085220;28;20027;-80
2023/09/16 10:53:05;;;;;;;16.50;7.32;;;;;;;24.38;60.58;94466.38;5067177;28;20026;-79
2023/09/16 10:55:56;;;;;;;10.93;7.40;;;;;;;24.32;61.67;94457.03;5084863;28;20101;-79
2023/09/16 10:59:10;;;;;;;13.53;7.10;;;;;;;24.34;61.27;94455.50;5085134;28;20096;-79
2023/09/16 11:01:49;;;;;;;11.50;7.13;;;;;;;24.48;61.38;94452.00;5003565;28;20030;-80
2023/09/16 11:04:17;;;;;;;16.50;9.15;;;;;;;24.54;60.61;94450.47;4987350;28;20033;-79
2023/09/16 11:06:43;;;;;;;11.60;7.28;;;;;;;24.49;59.42;94442.69;5051835;28;20038;-79
2023/09/16 11:09:09;;;;;;;19.85;8.02;;;;;;;24.40;61.34;94445.78;5084782;28;20226;-79
2023/09/16 11:11:34;;;;;;;11.38;7.40;;;;;;;24.29;60.12;94444.97;5084861;28;20051;-79
2023/09/16 11:14:02;;;;;;;22.80;8.73;;;;;;;24.25;60.70;94435.25;5084841;28;20017;-79
2023/09/16 11:16:27;;;;;;;15.63;8.15;;;;;;;24.09;60.61;94433.66;5084606;28;20083;-79
2023/09/16 11:18:54;;;;;;;19.67;8.50;;;;;;;23.94;62.23;94430.13;5084662;28;20028;-79